Lee Vining, California
Current Conditions -  °F | °C
As of 6:55 AM on Monday 22 Dec 2014 (Local Time) from KMMH Reporting Station
Clear Clear  
Wind Chill: 34°   Ceiling: Unl
Heat Index: 34°   Visibility: 10mi
Dew Point: 19°   Wind: 3mph
Humidity: 56%   Direction: 360°N
Pressure: 30.33"   Gusts: NA
Location:  37.96°N, 119.12°W
Report Text: KMMH 221455Z AUTO 36003KT 10SM CLR 01/M07 A3033 RMK AO1
Loading
Personal Weather Stations






























Interactive Weather Map New forecast layout! Learn more

10-Day Weather Forecast

Advertisements
Track Severe Weather on mobile